Time;durP1;ratioP1;P1;durP2;ratioP2;P2;SDS_P1;SDS_P2;PMS_P1;PMS_P2;Temp;Humidity;BMP_temperature;BMP_pressure;BME280_temperature;BME280_humidity;BME280_pressure;Samples;Min_cycle;Max_cycle;Signal;HPM_P1;HPM_P2
2023/11/08 00:00:14;;;;;;;7.40;4.57;;;;;;;;;;5033694;28;20205;-84
2023/11/08 00:02:42;;;;;;;10.57;4.63;;;;;;;;;;5034356;28;20227;-85
2023/11/08 00:05:09;;;;;;;10.33;4.60;;;;;;;;;;5033712;28;20231;-85
2023/11/08 00:07:37;;;;;;;9.63;4.40;;;;;;;;;;5032804;28;20762;-85
2023/11/08 00:10:04;;;;;;;9.53;4.63;;;;;;;;;;5033120;28;20287;-85
2023/11/08 00:12:31;;;;;;;9.87;4.67;;;;;;;;;;5033606;28;20197;-85
2023/11/08 00:15:00;;;;;;;12.37;4.57;;;;;;;;;;5033567;28;20547;-85
2023/11/08 00:17:27;;;;;;;7.73;4.53;;;;;;;;;;5033652;28;20202;-86
2023/11/08 00:19:55;;;;;;;9.93;4.27;;;;;;;;;;5033542;28;20583;-85
2023/11/08 00:22:23;;;;;;;8.83;4.20;;;;;;;;;;5033449;28;20234;-85
2023/11/08 00:24:50;;;;;;;8.50;4.33;;;;;;;;;;5033005;28;20238;-85
2023/11/08 00:27:18;;;;;;;9.70;4.53;;;;;;;;;;5033359;28;20696;-86
2023/11/08 00:29:46;;;;;;;9.57;4.27;;;;;;;;;;5033241;28;20197;-86
2023/11/08 00:32:21;;;;;;;11.77;5.03;;;;;;;;;;5032970;28;20207;-85
2023/11/08 00:34:48;;;;;;;10.83;6.10;;;;;;;;;;5033315;28;20210;-86
2023/11/08 00:37:15;;;;;;;11.57;5.90;;;;;;;;;;5033260;28;20196;-85
2023/11/08 00:39:44;;;;;;;15.57;6.70;;;;;;;;;;5032810;28;20231;-84
2023/11/08 00:42:11;;;;;;;11.17;6.10;;;;;;;;;;5033012;28;20198;-85
2023/11/08 00:44:39;;;;;;;11.37;5.40;;;;;;;;;;5033201;28;20205;-85
2023/11/08 00:47:08;;;;;;;9.63;4.87;;;;;;;;;;5032849;28;20286;-85
2023/11/08 00:49:37;;;;;;;10.47;5.03;;;;;;;;;;5033183;28;20263;-86
2023/11/08 00:52:06;;;;;;;10.00;5.20;;;;;;;;;;5032921;28;20264;-85
2023/11/08 00:54:33;;;;;;;11.67;5.13;;;;;;;;;;5032446;28;20205;-86
2023/11/08 00:57:01;;;;;;;9.30;4.90;;;;;;;;;;5032912;28;20199;-85
2023/11/08 00:59:28;;;;;;;7.90;4.33;;;;;;;;;;5032865;28;20298;-85
2023/11/08 01:01:55;;;;;;;7.07;4.40;;;;;;;;;;5032869;28;20204;-84
2023/11/08 01:04:25;;;;;;;13.27;4.67;;;;;;;;;;5032480;28;20283;-86
2023/11/08 01:06:54;;;;;;;10.90;5.00;;;;;;;;;;5032335;28;20232;-85
2023/11/08 01:09:21;;;;;;;9.57;4.70;;;;;;;;;;5032068;28;20726;-85
2023/11/08 01:11:49;;;;;;;10.37;4.40;;;;;;;;;;5033097;28;20206;-85
2023/11/08 01:14:16;;;;;;;9.47;4.70;;;;;;;;;;5032381;28;20695;-85
2023/11/08 01:16:43;;;;;;;11.87;5.03;;;;;;;;;;5032302;28;20227;-84
2023/11/08 01:19:10;;;;;;;12.37;5.00;;;;;;;;;;5032199;28;20239;-86
2023/11/08 01:21:37;;;;;;;11.50;5.03;;;;;;;;;;5032742;28;20753;-84
2023/11/08 01:24:07;;;;;;;10.33;4.73;;;;;;;;;;5047113;28;20224;-85
2023/11/08 01:26:34;;;;;;;10.17;5.27;;;;;;;;;;5031934;28;20200;-85
2023/11/08 01:29:01;;;;;;;11.17;5.43;;;;;;;;;;5032328;28;20227;-84
2023/11/08 01:31:28;;;;;;;11.30;5.20;;;;;;;;;;5032248;28;20271;-85
2023/11/08 01:33:57;;;;;;;9.47;5.57;;;;;;;;;;5035099;28;20227;-85
2023/11/08 01:36:25;;;;;;;10.87;5.70;;;;;;;;;;5051906;28;20196;-85
2023/11/08 01:38:52;;;;;;;10.00;5.60;;;;;;;;;;5051866;28;20195;-85
2023/11/08 01:41:20;;;;;;;14.77;5.93;;;;;;;;;;5051882;28;20227;-85
2023/11/08 01:43:48;;;;;;;11.93;5.30;;;;;;;;;;5051934;28;20257;-85
2023/11/08 01:46:20;;;;;;;11.60;5.93;;;;;;;;;;5052169;28;20284;-85
2023/11/08 01:48:47;;;;;;;11.90;6.13;;;;;;;;;;5052196;28;20250;-86
2023/11/08 01:51:14;;;;;;;8.80;5.77;;;;;;;;;;5051510;28;20295;-85
2023/11/08 01:53:42;;;;;;;9.97;6.30;;;;;;;;;;5051904;28;20237;-85
2023/11/08 01:56:10;;;;;;;10.23;6.03;;;;;;;;;;5051599;28;20199;-85
2023/11/08 01:58:40;;;;;;;11.03;6.07;;;;;;;;;;5051880;28;20286;-85
2023/11/08 02:01:09;;;;;;;13.00;6.77;;;;;;;;;;5051745;28;20566;-85
2023/11/08 02:03:36;;;;;;;9.87;6.47;;;;;;;;;;5051955;28;20283;-85
2023/11/08 02:06:03;;;;;;;12.93;6.90;;;;;;;;;;5051595;28;20277;-85
2023/11/08 02:08:31;;;;;;;13.40;7.00;;;;;;;;;;5051898;28;20318;-86
2023/11/08 02:10:58;;;;;;;15.77;7.43;;;;;;;;;;5007259;28;20197;-85
2023/11/08 02:13:26;;;;;;;13.63;7.67;;;;;;;;;;5030082;28;20755;-85
2023/11/08 02:15:55;;;;;;;15.57;7.70;;;;;;;;;;5031887;28;20203;-85
2023/11/08 02:18:22;;;;;;;15.57;7.67;;;;;;;;;;5023483;28;20295;-84
2023/11/08 02:20:49;;;;;;;12.57;7.87;;;;;;;;;;5027770;28;20651;-86
2023/11/08 02:23:17;;;;;;;16.87;9.03;;;;;;;;;;5032433;28;20235;-85
2023/11/08 02:25:46;;;;;;;13.13;8.90;;;;;;;;;;5031542;28;20196;-86
2023/11/08 02:28:14;;;;;;;15.63;9.00;;;;;;;;;;5026401;28;20215;-85
2023/11/08 02:30:41;;;;;;;14.20;9.20;;;;;;;;;;5013569;28;20249;-85
2023/11/08 02:33:09;;;;;;;13.23;9.37;;;;;;;;;;5015959;28;20730;-86
2023/11/08 02:35:37;;;;;;;14.80;9.87;;;;;;;;;;5048790;28;20679;-85
2023/11/08 02:38:06;;;;;;;15.50;10.20;;;;;;;;;;5055347;28;20195;-84
2023/11/08 02:40:34;;;;;;;17.07;10.30;;;;;;;;;;5055402;28;20199;-85
2023/11/08 02:43:03;;;;;;;17.03;10.27;;;;;;;;;;5055227;28;20277;-85
2023/11/08 02:45:33;;;;;;;13.97;10.00;;;;;;;;;;5055466;28;20205;-85
2023/11/08 02:48:02;;;;;;;17.47;10.20;;;;;;;;;;5055787;28;20261;-85
2023/11/08 02:50:30;;;;;;;14.93;10.60;;;;;;;;;;5055266;28;20252;-85
2023/11/08 02:52:58;;;;;;;15.63;10.63;;;;;;;;;;5055036;28;20245;-85
2023/11/08 02:55:26;;;;;;;18.80;10.60;;;;;;;;;;5054989;28;20250;-85
2023/11/08 02:57:53;;;;;;;16.60;9.97;;;;;;;;;;5055022;28;20203;-85
2023/11/08 03:00:22;;;;;;;15.37;9.97;;;;;;;;;;5054978;28;20200;-85
2023/11/08 03:02:51;;;;;;;15.03;9.97;;;;;;;;;;5055066;28;20231;-83
2023/11/08 03:05:21;;;;;;;12.73;9.37;;;;;;;;;;5054680;28;20199;-84
2023/11/08 03:07:48;;;;;;;15.07;9.43;;;;;;;;;;5054939;28;20203;-84
2023/11/08 03:10:17;;;;;;;15.17;8.90;;;;;;;;;;5054472;28;20235;-85
2023/11/08 03:12:45;;;;;;;13.50;9.07;;;;;;;;;;5054925;28;20690;-84
2023/11/08 03:15:12;;;;;;;15.87;8.73;;;;;;;;;;5055308;28;20240;-85
2023/11/08 03:17:42;;;;;;;16.43;8.37;;;;;;;;;;5054978;28;20227;-84
2023/11/08 03:20:09;;;;;;;14.67;7.97;;;;;;;;;;5054572;28;20286;-85
2023/11/08 03:22:37;;;;;;;11.87;8.17;;;;;;;;;;5054571;28;20205;-85
2023/11/08 03:25:04;;;;;;;14.23;7.73;;;;;;;;;;5054584;28;20225;-84
2023/11/08 03:27:32;;;;;;;10.53;7.07;;;;;;;;;;5054617;28;20200;-85
2023/11/08 03:29:59;;;;;;;12.47;7.23;;;;;;;;;;5054745;28;20262;-85
2023/11/08 03:32:27;;;;;;;12.33;6.63;;;;;;;;;;5054956;28;20294;-84
2023/11/08 03:34:56;;;;;;;12.90;6.70;;;;;;;;;;5042949;28;20253;-85
2023/11/08 03:37:23;;;;;;;10.97;6.47;;;;;;;;;;5035096;28;20227;-85
2023/11/08 03:39:51;;;;;;;11.93;6.40;;;;;;;;;;5034370;28;20207;-84
2023/11/08 03:42:18;;;;;;;13.07;6.73;;;;;;;;;;5033057;28;20207;-85
2023/11/08 03:44:46;;;;;;;8.23;6.00;;;;;;;;;;5034417;28;20698;-85
2023/11/08 03:47:13;;;;;;;10.90;5.73;;;;;;;;;;5034260;28;20750;-85
2023/11/08 03:49:40;;;;;;;10.67;5.90;;;;;;;;;;5029394;28;20241;-84
2023/11/08 03:52:09;;;;;;;13.63;6.07;;;;;;;;;;5015977;28;20252;-85
2023/11/08 03:54:36;;;;;;;13.37;5.40;;;;;;;;;;5015126;28;20243;-85
2023/11/08 03:57:03;;;;;;;9.23;5.20;;;;;;;;;;5014317;28;20283;-86
2023/11/08 03:59:31;;;;;;;10.97;5.20;;;;;;;;;;5014193;28;20228;-85
2023/11/08 04:01:58;;;;;;;11.63;5.30;;;;;;;;;;5013838;28;20229;-86
2023/11/08 04:04:25;;;;;;;10.50;5.07;;;;;;;;;;5014464;28;20280;-85
2023/11/08 04:06:53;;;;;;;11.03;4.70;;;;;;;;;;5014240;28;20248;-85
2023/11/08 04:09:22;;;;;;;8.73;4.40;;;;;;;;;;5014871;28;20233;-85
2023/11/08 04:11:49;;;;;;;13.43;4.60;;;;;;;;;;5013836;28;20581;-83
2023/11/08 04:14:16;;;;;;;8.37;4.27;;;;;;;;;;5014120;28;20283;-85
2023/11/08 04:16:43;;;;;;;9.97;4.40;;;;;;;;;;5013682;28;20291;-85
2023/11/08 04:19:11;;;;;;;10.17;4.27;;;;;;;;;;5014136;28;20205;-85
2023/11/08 04:21:38;;;;;;;7.50;4.53;;;;;;;;;;5013802;28;20231;-85
2023/11/08 04:24:06;;;;;;;9.10;4.37;;;;;;;;;;5013482;28;20315;-85
2023/11/08 04:26:34;;;;;;;6.53;3.97;;;;;;;;;;5013180;28;20201;-85
2023/11/08 04:29:01;;;;;;;7.73;3.83;;;;;;;;;;5013712;28;20588;-85
2023/11/08 04:31:29;;;;;;;11.07;4.20;;;;;;;;;;5013129;28;20698;-85
2023/11/08 04:33:56;;;;;;;8.50;3.70;;;;;;;;;;5016911;28;20280;-85
2023/11/08 04:36:26;;;;;;;7.47;4.10;;;;;;;;;;5033402;28;20261;-86
2023/11/08 04:38:53;;;;;;;8.93;3.77;;;;;;;;;;5033319;28;20208;-85
2023/11/08 04:41:21;;;;;;;7.17;3.87;;;;;;;;;;5033438;28;20204;-86
2023/11/08 04:43:50;;;;;;;5.80;3.43;;;;;;;;;;5032723;28;20580;-85
2023/11/08 04:46:17;;;;;;;8.93;3.93;;;;;;;;;;5033759;28;20196;-85
2023/11/08 04:48:45;;;;;;;7.07;3.60;;;;;;;;;;5032862;28;20204;-85
2023/11/08 04:51:12;;;;;;;12.80;4.10;;;;;;;;;;5033027;28;20202;-85
2023/11/08 04:53:39;;;;;;;7.23;3.50;;;;;;;;;;5032421;28;20303;-85
2023/11/08 04:56:06;;;;;;;10.83;3.87;;;;;;;;;;5034101;28;20227;-85
2023/11/08 04:58:34;;;;;;;7.10;3.00;;;;;;;;;;5033226;28;20250;-85
2023/11/08 05:01:02;;;;;;;7.80;3.17;;;;;;;;;;5032882;28;20253;-85
2023/11/08 05:03:30;;;;;;;5.80;3.20;;;;;;;;;;5032871;28;20286;-85
2023/11/08 05:05:57;;;;;;;10.83;3.50;;;;;;;;;;5032870;28;20263;-85
2023/11/08 05:08:25;;;;;;;6.40;2.77;;;;;;;;;;5033153;28;20223;-85
2023/11/08 05:10:52;;;;;;;6.03;3.10;;;;;;;;;;5033021;28;20234;-86
2023/11/08 05:13:19;;;;;;;7.70;2.87;;;;;;;;;;5032820;28;20238;-85
2023/11/08 05:15:47;;;;;;;5.77;3.03;;;;;;;;;;5032083;28;20239;-84
2023/11/08 05:18:16;;;;;;;8.03;2.60;;;;;;;;;;5032770;28;20199;-85
2023/11/08 05:20:44;;;;;;;6.00;2.80;;;;;;;;;;5032616;28;20653;-85
2023/11/08 05:23:11;;;;;;;6.10;2.50;;;;;;;;;;5032298;28;20243;-85
2023/11/08 05:25:40;;;;;;;7.30;3.17;;;;;;;;;;5032167;28;20276;-85
2023/11/08 05:28:08;;;;;;;4.93;2.67;;;;;;;;;;5032226;28;20195;-85
2023/11/08 05:30:37;;;;;;;8.57;2.90;;;;;;;;;;5031668;28;20262;-85
2023/11/08 05:33:05;;;;;;;6.50;2.50;;;;;;;;;;5032673;28;20235;-84
2023/11/08 05:35:34;;;;;;;6.53;2.90;;;;;;;;;;5032211;28;20208;-85
2023/11/08 05:38:01;;;;;;;6.97;2.90;;;;;;;;;;5032533;28;20203;-85
2023/11/08 05:40:29;;;;;;;6.73;3.00;;;;;;;;;;5032064;28;20192;-85
2023/11/08 05:42:57;;;;;;;6.03;2.60;;;;;;;;;;5032090;28;20200;-85
2023/11/08 05:45:25;;;;;;;9.37;2.90;;;;;;;;;;5031787;28;20199;-85
2023/11/08 05:47:52;;;;;;;4.97;2.80;;;;;;;;;;5032115;28;20224;-85
2023/11/08 05:50:19;;;;;;;8.60;2.70;;;;;;;;;;5031620;28;20625;-85
2023/11/08 05:52:47;;;;;;;6.83;2.37;;;;;;;;;;5032515;28;20307;-85
2023/11/08 05:55:15;;;;;;;7.63;2.83;;;;;;;;;;5032745;28;20231;-85
2023/11/08 05:57:42;;;;;;;7.73;2.50;;;;;;;;;;5032013;28;20228;-84
2023/11/08 06:00:10;;;;;;;7.70;2.77;;;;;;;;;;5032193;28;20216;-84
2023/11/08 06:02:37;;;;;;;8.63;3.43;;;;;;;;;;5032681;28;20196;-84
2023/11/08 06:05:05;;;;;;;6.40;3.00;;;;;;;;;;5031941;28;20257;-85
2023/11/08 06:07:32;;;;;;;8.43;2.97;;;;;;;;;;5036237;28;20291;-84
2023/11/08 06:10:01;;;;;;;7.27;2.53;;;;;;;;;;5035668;28;20324;-85
2023/11/08 06:12:28;;;;;;;9.53;2.27;;;;;;;;;;5035348;28;20258;-85
2023/11/08 06:14:56;;;;;;;8.60;2.70;;;;;;;;;;5035952;28;20234;-85
2023/11/08 06:17:23;;;;;;;6.03;2.70;;;;;;;;;;5036115;28;20279;-85
2023/11/08 06:19:50;;;;;;;8.67;2.87;;;;;;;;;;5035787;28;20228;-85
2023/11/08 06:22:17;;;;;;;7.80;2.93;;;;;;;;;;5035738;28;20224;-83
2023/11/08 06:24:45;;;;;;;6.97;2.40;;;;;;;;;;5035790;28;20680;-84
2023/11/08 06:27:14;;;;;;;5.53;2.50;;;;;;;;;;5035410;28;20201;-83
2023/11/08 06:29:41;;;;;;;6.73;2.80;;;;;;;;;;5035438;28;20250;-83
2023/11/08 06:32:08;;;;;;;7.87;2.50;;;;;;;;;;5035205;28;20239;-82
2023/11/08 06:34:35;;;;;;;6.77;2.40;;;;;;;;;;5035501;28;20239;-83
2023/11/08 06:37:03;;;;;;;6.23;2.47;;;;;;;;;;5035423;28;20228;-84
2023/11/08 06:39:30;;;;;;;5.03;2.67;;;;;;;;;;5033802;28;20239;-83
2023/11/08 06:41:59;;;;;;;5.43;2.53;;;;;;;;;;5023400;28;20286;-84
2023/11/08 06:44:27;;;;;;;10.63;2.67;;;;;;;;;;5034320;28;20636;-83
2023/11/08 06:46:55;;;;;;;8.73;2.50;;;;;;;;;;5034863;28;20231;-83
2023/11/08 06:49:23;;;;;;;6.37;2.40;;;;;;;;;;5035039;28;20211;-83
2023/11/08 06:51:50;;;;;;;4.93;2.27;;;;;;;;;;5035037;28;20259;-83
2023/11/08 06:54:17;;;;;;;6.43;2.00;;;;;;;;;;5034680;28;20716;-82
2023/11/08 06:56:45;;;;;;;7.17;2.33;;;;;;;;;;5034606;28;20283;-84
2023/11/08 06:59:12;;;;;;;6.73;1.90;;;;;;;;;;5034507;28;20288;-84
2023/11/08 07:01:41;;;;;;;8.53;2.20;;;;;;;;;;5035120;28;20232;-84
2023/11/08 07:04:08;;;;;;;8.40;1.90;;;;;;;;;;5032499;28;20215;-83
2023/11/08 07:06:36;;;;;;;8.17;2.10;;;;;;;;;;5031356;28;20196;-83
2023/11/08 07:09:03;;;;;;;6.07;2.03;;;;;;;;;;5031290;28;20203;-83
2023/11/08 07:11:30;;;;;;;8.37;2.10;;;;;;;;;;5030818;28;20239;-83
2023/11/08 07:13:57;;;;;;;5.47;2.20;;;;;;;;;;5031322;28;20192;-84
2023/11/08 07:16:25;;;;;;;8.90;2.77;;;;;;;;;;5031613;28;20236;-83
2023/11/08 07:18:53;;;;;;;8.93;2.30;;;;;;;;;;5034341;28;20236;-83
2023/11/08 07:21:21;;;;;;;10.57;2.53;;;;;;;;;;5034208;28;20201;-84
2023/11/08 07:23:49;;;;;;;5.47;2.23;;;;;;;;;;5034461;28;20279;-83
2023/11/08 07:26:16;;;;;;;5.73;2.30;;;;;;;;;;5034032;28;20200;-84
2023/11/08 07:28:45;;;;;;;6.43;1.97;;;;;;;;;;5034344;28;20196;-84
2023/11/08 07:31:12;;;;;;;5.17;1.90;;;;;;;;;;5033804;28;20335;-84
2023/11/08 07:33:39;;;;;;;7.17;2.00;;;;;;;;;;5034353;28;20228;-83
2023/11/08 07:36:08;;;;;;;5.37;2.13;;;;;;;;;;5053742;28;20282;-82
2023/11/08 07:38:36;;;;;;;6.73;2.07;;;;;;;;;;5053911;28;20227;-84
2023/11/08 07:41:03;;;;;;;6.03;1.93;;;;;;;;;;5053522;28;20206;-82
2023/11/08 07:43:30;;;;;;;8.30;1.87;;;;;;;;;;5053777;28;20283;-82
2023/11/08 07:45:57;;;;;;;5.70;2.03;;;;;;;;;;5053785;28;20703;-83
2023/11/08 07:48:26;;;;;;;6.73;2.30;;;;;;;;;;5053999;28;20283;-83
2023/11/08 07:50:53;;;;;;;7.17;2.10;;;;;;;;;;5053353;28;20259;-82
2023/11/08 07:53:22;;;;;;;5.33;2.13;;;;;;;;;;5053972;28;20223;-82
2023/11/08 07:55:50;;;;;;;9.70;2.50;;;;;;;;;;5053232;28;20200;-83
2023/11/08 07:58:18;;;;;;;6.10;2.00;;;;;;;;;;5053607;28;20224;-83
2023/11/08 08:00:46;;;;;;;7.77;2.13;;;;;;;;;;5053650;28;20202;-83
2023/11/08 08:03:14;;;;;;;5.30;2.10;;;;;;;;;;5053354;28;20196;-82
2023/11/08 08:05:42;;;;;;;4.87;2.07;;;;;;;;;;5053264;28;20718;-82
2023/11/08 08:08:09;;;;;;;5.00;1.80;;;;;;;;;;5053291;28;20287;-83
2023/11/08 08:10:38;;;;;;;6.93;2.30;;;;;;;;;;5052769;28;20230;-83
2023/11/08 08:13:05;;;;;;;6.67;2.17;;;;;;;;;;5053578;28;20291;-82
2023/11/08 08:15:32;;;;;;;8.47;2.10;;;;;;;;;;5052576;28;20278;-81
2023/11/08 08:17:59;;;;;;;8.63;2.53;;;;;;;;;;5053135;28;20680;-82
2023/11/08 08:20:27;;;;;;;8.43;2.50;;;;;;;;;;5052896;28;20579;-82
2023/11/08 08:22:56;;;;;;;9.00;2.40;;;;;;;;;;5052937;28;20694;-83
2023/11/08 08:25:23;;;;;;;7.60;2.00;;;;;;;;;;5035299;28;20196;-83
2023/11/08 08:27:51;;;;;;;6.87;2.30;;;;;;;;;;5052528;28;20206;-81
2023/11/08 08:30:20;;;;;;;7.80;1.90;;;;;;;;;;5052377;28;20725;-82
2023/11/08 08:32:49;;;;;;;7.43;2.10;;;;;;;;;;5053203;28;20253;-82
2023/11/08 08:35:17;;;;;;;7.00;2.43;;;;;;;;;;5038195;28;20215;-82
2023/11/08 08:37:43;;;;;;;6.10;1.97;;;;;;;;;;5032448;28;20357;-82
2023/11/08 08:40:11;;;;;;;6.03;2.10;;;;;;;;;;5033081;28;20205;-83
2023/11/08 08:42:38;;;;;;;6.97;2.30;;;;;;;;;;5033472;28;20196;-82
2023/11/08 08:45:08;;;;;;;8.40;2.17;;;;;;;;;;5032715;28;20228;-82
2023/11/08 08:47:37;;;;;;;7.97;2.10;;;;;;;;;;5032681;28;20208;-82
2023/11/08 08:50:05;;;;;;;5.70;1.80;;;;;;;;;;5033029;28;20197;-83
2023/11/08 08:52:32;;;;;;;7.03;1.83;;;;;;;;;;5032498;28;20204;-82
2023/11/08 08:54:59;;;;;;;9.13;2.40;;;;;;;;;;5032523;28;20613;-83
2023/11/08 08:57:27;;;;;;;9.03;2.30;;;;;;;;;;5032769;28;20283;-82
2023/11/08 08:59:54;;;;;;;8.60;1.90;;;;;;;;;;5032988;28;20224;-83
2023/11/08 09:02:25;;;;;;;6.80;1.80;;;;;;;;;;5032501;28;20300;-81
2023/11/08 09:04:52;;;;;;;7.33;2.10;;;;;;;;;;5032428;28;20228;-82
2023/11/08 09:07:19;;;;;;;9.10;2.13;;;;;;;;;;5032560;28;20199;-82
2023/11/08 09:09:46;;;;;;;8.23;2.03;;;;;;;;;;5032283;28;20232;-81
2023/11/08 09:12:14;;;;;;;5.93;1.60;;;;;;;;;;5031897;28;20318;-82
2023/11/08 09:14:41;;;;;;;6.30;1.83;;;;;;;;;;5032122;28;20239;-82
2023/11/08 09:17:08;;;;;;;9.47;2.30;;;;;;;;;;5032355;28;20212;-82
2023/11/08 09:19:37;;;;;;;7.43;2.20;;;;;;;;;;5032063;28;20207;-82
2023/11/08 09:22:04;;;;;;;9.70;2.57;;;;;;;;;;5032097;28;20295;-83
2023/11/08 09:24:32;;;;;;;9.00;2.00;;;;;;;;;;5032434;28;20209;-83
2023/11/08 09:26:59;;;;;;;6.80;1.80;;;;;;;;;;5031887;28;20208;-82
2023/11/08 09:29:28;;;;;;;8.03;2.30;;;;;;;;;;5031925;28;20200;-82
2023/11/08 09:31:56;;;;;;;6.13;1.73;;;;;;;;;;5032098;28;20244;-83
2023/11/08 09:34:23;;;;;;;7.00;2.30;;;;;;;;;;5031633;28;20204;-86
2023/11/08 09:36:51;;;;;;;8.57;2.03;;;;;;;;;;5031383;28;20196;-83
2023/11/08 09:39:20;;;;;;;6.53;2.33;;;;;;;;;;5032095;28;20254;-82
2023/11/08 09:41:47;;;;;;;9.73;2.30;;;;;;;;;;5031553;28;20235;-81
2023/11/08 09:44:16;;;;;;;7.10;1.97;;;;;;;;;;5031907;28;20294;-82
2023/11/08 09:46:43;;;;;;;7.30;1.93;;;;;;;;;;5031582;28;20657;-83
2023/11/08 09:49:11;;;;;;;6.73;1.80;;;;;;;;;;5031612;28;20307;-81
2023/11/08 09:51:39;;;;;;;6.83;1.60;;;;;;;;;;5031449;28;20238;-82
2023/11/08 09:54:07;;;;;;;6.20;2.00;;;;;;;;;;5031628;28;20322;-82
2023/11/08 09:56:35;;;;;;;4.67;1.70;;;;;;;;;;5031681;28;20288;-82
2023/11/08 09:59:03;;;;;;;5.90;1.80;;;;;;;;;;5031401;28;20227;-82
2023/11/08 10:01:32;;;;;;;6.47;1.90;;;;;;;;;;5032000;28;20279;-82
2023/11/08 10:04:00;;;;;;;8.60;1.80;;;;;;;;;;5032048;28;20200;-83
2023/11/08 10:06:31;;;;;;;9.37;2.10;;;;;;;;;;5031232;28;20196;-82
2023/11/08 10:08:58;;;;;;;10.17;2.67;;;;;;;;;;5031824;28;20192;-83
2023/11/08 10:11:29;;;;;;;9.73;2.40;;;;;;;;;;5031261;28;20733;-83
2023/11/08 10:13:57;;;;;;;12.70;2.60;;;;;;;;;;5031950;28;20252;-82
2023/11/08 10:16:24;;;;;;;11.47;3.00;;;;;;;;;;5031353;28;20243;-83
2023/11/08 10:18:55;;;;;;;15.40;2.70;;;;;;;;;;5031243;28;20572;-82
2023/11/08 10:21:24;;;;;;;12.67;2.90;;;;;;;;;;5031524;28;20683;-82
2023/11/08 10:23:52;;;;;;;11.07;3.23;;;;;;;;;;5031601;28;20199;-82
2023/11/08 10:26:20;;;;;;;13.17;2.80;;;;;;;;;;5031361;28;20201;-83
2023/11/08 10:29:00;;;;;;;9.90;2.53;;;;;;;;;;5031148;28;20550;-82
2023/11/08 10:31:33;;;;;;;10.57;2.20;;;;;;;;;;5031001;28;20672;-82
2023/11/08 10:34:01;;;;;;;11.97;2.43;;;;;;;;;;5030705;28;20284;-82
2023/11/08 10:36:29;;;;;;;14.40;3.03;;;;;;;;;;5031107;28;20208;-83
2023/11/08 10:38:57;;;;;;;15.87;4.27;;;;;;;;;;5031034;28;20236;-83
2023/11/08 10:41:24;;;;;;;9.50;2.37;;;;;;;;;;5031332;28;20201;-82
2023/11/08 10:44:07;;;;;;;11.00;2.67;;;;;;;;;;5031356;28;20238;-82
2023/11/08 10:46:34;;;;;;;11.10;2.33;;;;;;;;;;5031050;28;20192;-81
2023/11/08 10:49:02;;;;;;;15.33;2.60;;;;;;;;;;5030768;28;20250;-82
2023/11/08 10:51:30;;;;;;;7.93;2.40;;;;;;;;;;5013739;28;20239;-82
2023/11/08 10:53:58;;;;;;;10.93;2.60;;;;;;;;;;5035160;28;20243;-82
2023/11/08 10:56:26;;;;;;;13.63;2.27;;;;;;;;;;5034909;28;20201;-82
2023/11/08 10:58:58;;;;;;;11.00;2.47;;;;;;;;;;5034653;28;20228;-82
2023/11/08 11:01:27;;;;;;;9.13;2.20;;;;;;;;;;5034514;28;20735;-82
2023/11/08 11:03:56;;;;;;;12.53;2.33;;;;;;;;;;5034668;28;20205;-82
2023/11/08 11:06:23;;;;;;;10.83;2.63;;;;;;;;;;5034582;28;20238;-83
2023/11/08 11:08:54;;;;;;;12.83;2.47;;;;;;;;;;5034700;28;20200;-82
2023/11/08 11:11:21;;;;;;;11.00;2.30;;;;;;;;;;5034544;28;20271;-81
2023/11/08 11:13:51;;;;;;;10.50;2.83;;;;;;;;;;5034554;28;20203;-82
2023/11/08 11:16:22;;;;;;;12.20;2.57;;;;;;;;;;5034294;28;20793;-83
2023/11/08 11:18:52;;;;;;;11.40;2.40;;;;;;;;;;5034360;28;20697;-82
2023/11/08 11:21:30;;;;;;;11.93;2.53;;;;;;;;;;5034400;28;20201;-83
2023/11/08 11:23:57;;;;;;;13.00;2.90;;;;;;;;;;5034388;28;20203;-84
2023/11/08 11:26:44;;;;;;;10.97;3.00;;;;;;;;;;5034579;28;20624;-82
2023/11/08 11:29:17;;;;;;;15.70;3.33;;;;;;;;;;5034188;28;20291;-82
2023/11/08 11:31:44;;;;;;;11.20;3.43;;;;;;;;;;5033373;28;20335;-82
2023/11/08 11:34:30;;;;;;;11.10;2.47;;;;;;;;;;5033984;28;20287;-81
2023/11/08 11:37:10;;;;;;;11.87;2.50;;;;;;;;;;5034390;28;20232;-83
2023/11/08 11:39:38;;;;;;;9.77;2.90;;;;;;;;;;5034102;28;20254;-83
2023/11/08 11:42:06;;;;;;;10.27;2.60;;;;;;;;;;5034358;28;20251;-82
2023/11/08 11:44:43;;;;;;;10.70;2.67;;;;;;;;;;5033633;28;20259;-82
2023/11/08 11:47:11;;;;;;;13.10;2.83;;;;;;;;;;5033920;28;20200;-82
2023/11/08 11:49:40;;;;;;;9.97;2.60;;;;;;;;;;5033499;28;20200;-82
2023/11/08 11:52:09;;;;;;;12.67;2.90;;;;;;;;;;5033708;28;20235;-82
2023/11/08 11:54:36;;;;;;;12.77;3.57;;;;;;;;;;5034013;28;20218;-82
2023/11/08 11:57:03;;;;;;;11.77;3.10;;;;;;;;;;5032401;28;20779;-83
2023/11/08 11:59:31;;;;;;;12.87;3.17;;;;;;;;;;5031061;28;20729;-82
2023/11/08 12:01:59;;;;;;;13.97;3.60;;;;;;;;;;5032520;28;20251;-83
2023/11/08 12:04:26;;;;;;;12.23;2.90;;;;;;;;;;5031268;28;20209;-83
2023/11/08 12:06:55;;;;;;;12.63;2.70;;;;;;;;;;4681736;28;9999710;-81
2023/11/08 12:09:24;;;;;;;11.37;2.57;;;;;;;;;;5029063;28;20242;-84
2023/11/08 12:11:51;;;;;;;11.53;2.97;;;;;;;;;;5028577;28;20229;-83
2023/11/08 12:14:21;;;;;;;10.27;2.53;;;;;;;;;;5028755;28;20200;-82
2023/11/08 12:16:49;;;;;;;11.23;2.90;;;;;;;;;;5022352;28;20668;-84
2023/11/08 12:19:16;;;;;;;9.47;2.27;;;;;;;;;;5027691;28;20201;-84
2023/11/08 12:21:45;;;;;;;11.23;2.57;;;;;;;;;;5029450;28;20235;-86
2023/11/08 12:24:12;;;;;;;10.80;2.90;;;;;;;;;;5027902;28;20767;-85
2023/11/08 12:26:41;;;;;;;9.93;2.77;;;;;;;;;;5029100;28;20199;-83
2023/11/08 12:29:11;;;;;;;8.27;2.63;;;;;;;;;;5036825;28;20235;-83
2023/11/08 12:31:38;;;;;;;9.60;2.40;;;;;;;;;;5034060;28;20244;-84
2023/11/08 12:34:06;;;;;;;10.07;2.83;;;;;;;;;;5030294;28;20262;-83
2023/11/08 12:36:36;;;;;;;11.07;2.90;;;;;;;;;;5039769;28;20227;-84
2023/11/08 12:39:05;;;;;;;11.27;2.90;;;;;;;;;;5030375;28;20201;-83
2023/11/08 12:41:44;;;;;;;7.10;2.60;;;;;;;;;;5036706;28;20235;-84
2023/11/08 12:44:12;;;;;;;8.27;1.87;;;;;;;;;;5046877;28;20198;-85
2023/11/08 12:46:53;;;;;;;8.90;2.30;;;;;;;;;;5036387;28;20196;-85
2023/11/08 12:49:21;;;;;;;10.30;2.67;;;;;;;;;;5031760;28;20651;-82
2023/11/08 12:51:48;;;;;;;7.70;2.03;;;;;;;;;;5032253;28;20290;-87
2023/11/08 12:54:16;;;;;;;6.83;2.20;;;;;;;;;;5033581;28;20250;-87
2023/11/08 12:56:45;;;;;;;6.67;2.10;;;;;;;;;;5033377;28;20200;-86
2023/11/08 12:59:14;;;;;;;8.53;2.43;;;;;;;;;;5032616;28;20303;-87
2023/11/08 13:01:42;;;;;;;7.53;1.80;;;;;;;;;;5032858;28;20675;-85
2023/11/08 13:04:09;;;;;;;9.40;2.63;;;;;;;;;;5032827;28;20203;-86
2023/11/08 13:06:37;;;;;;;10.40;2.13;;;;;;;;;;5033038;28;20201;-86
2023/11/08 13:09:05;;;;;;;8.37;2.20;;;;;;;;;;5032872;28;20208;-87
2023/11/08 13:11:33;;;;;;;7.80;1.90;;;;;;;;;;5032638;28;20703;-86
2023/11/08 13:14:01;;;;;;;11.57;2.20;;;;;;;;;;5032672;28;20193;-86
2023/11/08 13:16:29;;;;;;;7.57;2.20;;;;;;;;;;5032935;28;20255;-88
2023/11/08 13:18:56;;;;;;;9.90;2.10;;;;;;;;;;5032844;28;20235;-86
2023/11/08 13:21:23;;;;;;;10.37;2.33;;;;;;;;;;5033075;28;20224;-87
2023/11/08 13:23:50;;;;;;;9.70;2.40;;;;;;;;;;5032688;28;20215;-86
2023/11/08 13:26:17;;;;;;;7.17;2.03;;;;;;;;;;5032450;28;20202;-86
2023/11/08 13:28:45;;;;;;;7.63;1.70;;;;;;;;;;5032238;28;20220;-86
2023/11/08 13:31:14;;;;;;;5.20;1.80;;;;;;;;;;5032857;28;20322;-86
2023/11/08 13:33:41;;;;;;;7.23;1.60;;;;;;;;;;5033140;28;20362;-87
2023/11/08 13:36:09;;;;;;;5.60;1.77;;;;;;;;;;5052363;28;20699;-86
2023/11/08 13:38:37;;;;;;;4.60;1.30;;;;;;;;;;5052150;28;20219;-86
2023/11/08 13:41:05;;;;;;;5.77;1.60;;;;;;;;;;5052288;28;20195;-86
2023/11/08 13:43:32;;;;;;;3.60;1.13;;;;;;;;;;5052069;28;20203;-84
2023/11/08 13:46:00;;;;;;;4.10;1.20;;;;;;;;;;5051984;28;20668;-85
2023/11/08 13:48:29;;;;;;;4.70;1.27;;;;;;;;;;5052273;28;20277;-85
2023/11/08 13:50:56;;;;;;;7.03;1.67;;;;;;;;;;5051768;28;20242;-86
2023/11/08 13:53:24;;;;;;;3.47;1.20;;;;;;;;;;5051207;28;20251;-81
2023/11/08 13:55:51;;;;;;;5.27;1.27;;;;;;;;;;5051503;28;20195;-82
2023/11/08 13:58:19;;;;;;;4.43;1.50;;;;;;;;;;5050573;28;20726;-80
2023/11/08 14:00:46;;;;;;;3.07;1.30;;;;;;;;;;5051493;28;20295;-83
2023/11/08 14:03:13;;;;;;;3.60;1.53;;;;;;;;;;5051120;28;20292;-82
2023/11/08 14:05:42;;;;;;;4.90;1.40;;;;;;;;;;5051457;28;20231;-82
2023/11/08 14:08:09;;;;;;;5.10;1.30;;;;;;;;;;5051352;28;20227;-83
2023/11/08 14:10:37;;;;;;;4.07;1.10;;;;;;;;;;5050821;28;20196;-83
2023/11/08 14:13:04;;;;;;;3.80;1.30;;;;;;;;;;5050666;28;20243;-83
2023/11/08 14:15:31;;;;;;;6.97;1.53;;;;;;;;;;5051005;28;20200;-82
2023/11/08 14:17:59;;;;;;;4.47;1.40;;;;;;;;;;5051674;28;20257;-84
2023/11/08 14:20:27;;;;;;;5.97;1.37;;;;;;;;;;5051135;28;20200;-84
2023/11/08 14:22:55;;;;;;;3.13;1.43;;;;;;;;;;5045664;28;20220;-83
2023/11/08 14:25:23;;;;;;;3.87;1.40;;;;;;;;;;5030601;28;20203;-82
2023/11/08 14:27:50;;;;;;;4.43;1.50;;;;;;;;;;5033650;28;20247;-81
2023/11/08 14:30:17;;;;;;;4.60;1.37;;;;;;;;;;5034840;28;20651;-82
2023/11/08 14:32:44;;;;;;;4.47;1.47;;;;;;;;;;5046192;28;20259;-81
2023/11/08 14:35:13;;;;;;;3.03;1.20;;;;;;;;;;5038430;28;20283;-82
2023/11/08 14:37:40;;;;;;;4.47;1.50;;;;;;;;;;5034842;28;20201;-83
2023/11/08 14:40:10;;;;;;;3.90;1.40;;;;;;;;;;5038910;28;20656;-80
2023/11/08 14:42:37;;;;;;;4.07;1.27;;;;;;;;;;5034705;28;20199;-83